Aérodrome :
LOGIN :

S'inscrire | Disclaimer

   EN    FR    IT 

 










Légende :    VFR   VFR Marginal   IFR   IFR Intensif   IFR Très Intensif
Visi : 
Plafond : 
>= 8 km
>= 3000ft
5 à 8 km
1000 à 3000 ft
1500m à 5 km
500 à 1000 ft
800 à 1500m
200 à 500 ft
< 800m
< 200 ft
Symboles :   Orages  Brouillard  Fortes neiges  Fortes précipitations  Vent > 20 kt
SIGMETs :   Divers  Orages  Givrage  Turbulence  Onde Orograph.  Cendres Volcan.






- Altitude de l'aérodrome : 348 ft
- Code IATA : STN


EGSS - London Stansted

DERNIER METAR :
  • 210950Z AUTO 32009KT 290V350 9999 OVC039 18/13 Q1010

METARs EXPIRÉS :
  • 210920Z AUTO 33008KT 9999 OVC036 19/13 Q1010
  • 210850Z AUTO 33008KT 290V010 9999 FEW018 BKN035 18/14 Q1010
  • 210820Z AUTO 32008KT 270V350 9999 SCT016 BKN037 17/14 Q1010
  • 210750Z AUTO 31009KT 280V350 9999 BKN013 BKN033 17/14 Q1009
  • 210720Z AUTO 32007KT 290V360 9999 SCT012 OVC028 17/15 Q1009
  • 210650Z AUTO 32007KT 290V350 9999 FEW005 SCT009 OVC024 16/15 Q1009
  • 210620Z AUTO 29007KT 9999 OVC004 16/16 Q1008
  • 210550Z AUTO 31005KT 9999 -RA BKN006 OVC016 17/16 Q1008
  • 210520Z AUTO 30005KT 260V330 9000 -RA BKN005 BKN009 OVC013 17/16 Q1008

TAF AMD TAF EGSS
Valide du 21 à 07h jusqu'au 22 à 12h UTC


210753Z 2107/2212 29010KT 9999 BKN010
BECMG 2107/2110 SCT045
BECMG 2200/2203 20010KT
TEMPO 2205/2210 BKN010
PROB30
TEMPO 2205/2210 6000 -DZ
TEMPO 2210/2212 6000 SHRA
ATIS : +44 1279 669 325



MET'MAP, la Météo Aéronautique d'un coup d'oeil ! - Copyright ORBIFLY Décembre 2007 - Disclaimer

ORBIFLY MET'MAP TEAM :

Programmation & Développement : Alexandra Zaïnal
Sur une idée originale de : Baudouin d'Aumeries
Soutien technique & logistique : Manuel Goepfert
Assistance : Marc-Olivier Méhu




SOURCES & CREDITS :

   NOAA